sensor_id;sensor_type;location;lat;lon;timestamp;temperature;humidity
23160;DHT22;11748;50.844;4.396;2023-03-17T00:01:46;13.30;96.10
23160;DHT22;11748;50.844;4.396;2023-03-17T00:04:16;13.30;96.10
23160;DHT22;11748;50.844;4.396;2023-03-17T00:06:43;13.30;96.10
23160;DHT22;11748;50.844;4.396;2023-03-17T00:09:14;13.30;96.20
23160;DHT22;11748;50.844;4.396;2023-03-17T00:11:41;13.20;96.30
23160;DHT22;11748;50.844;4.396;2023-03-17T00:14:06;13.20;96.20
23160;DHT22;11748;50.844;4.396;2023-03-17T00:16:37;13.20;96.30
23160;DHT22;11748;50.844;4.396;2023-03-17T00:19:03;13.20;96.30
23160;DHT22;11748;50.844;4.396;2023-03-17T00:21:32;13.20;96.30
23160;DHT22;11748;50.844;4.396;2023-03-17T00:23:58;13.10;96.30
23160;DHT22;11748;50.844;4.396;2023-03-17T00:26:25;13.10;96.40
23160;DHT22;11748;50.844;4.396;2023-03-17T00:28:51;13.00;96.50
23160;DHT22;11748;50.844;4.396;2023-03-17T00:31:27;13.00;96.50
23160;DHT22;11748;50.844;4.396;2023-03-17T00:33:54;13.00;96.50
23160;DHT22;11748;50.844;4.396;2023-03-17T00:36:23;13.00;96.60
23160;DHT22;11748;50.844;4.396;2023-03-17T00:38:49;13.00;96.70
23160;DHT22;11748;50.844;4.396;2023-03-17T00:41:18;13.00;96.50
23160;DHT22;11748;50.844;4.396;2023-03-17T00:43:44;13.00;96.50
23160;DHT22;11748;50.844;4.396;2023-03-17T00:46:23;13.00;96.50
23160;DHT22;11748;50.844;4.396;2023-03-17T00:48:49;13.10;96.50
23160;DHT22;11748;50.844;4.396;2023-03-17T00:51:15;13.00;96.50
23160;DHT22;11748;50.844;4.396;2023-03-17T00:53:42;13.00;96.60
23160;DHT22;11748;50.844;4.396;2023-03-17T00:56:14;13.10;96.60
23160;DHT22;11748;50.844;4.396;2023-03-17T00:58:41;13.10;96.50
23160;DHT22;11748;50.844;4.396;2023-03-17T01:01:07;13.10;96.60
23160;DHT22;11748;50.844;4.396;2023-03-17T01:03:33;13.00;96.60
23160;DHT22;11748;50.844;4.396;2023-03-17T01:05:59;13.10;96.50
23160;DHT22;11748;50.844;4.396;2023-03-17T01:08:27;13.10;96.50
23160;DHT22;11748;50.844;4.396;2023-03-17T01:10:54;13.10;96.50
23160;DHT22;11748;50.844;4.396;2023-03-17T01:13:21;13.10;96.60
23160;DHT22;11748;50.844;4.396;2023-03-17T01:15:48;13.10;96.60
23160;DHT22;11748;50.844;4.396;2023-03-17T01:18:17;13.10;96.50
23160;DHT22;11748;50.844;4.396;2023-03-17T01:20:44;13.10;96.60
23160;DHT22;11748;50.844;4.396;2023-03-17T01:23:10;13.10;96.50
23160;DHT22;11748;50.844;4.396;2023-03-17T01:25:38;13.10;96.60
23160;DHT22;11748;50.844;4.396;2023-03-17T01:28:04;13.10;96.70
23160;DHT22;11748;50.844;4.396;2023-03-17T01:30:37;13.10;96.70
23160;DHT22;11748;50.844;4.396;2023-03-17T01:33:03;12.90;96.80
23160;DHT22;11748;50.844;4.396;2023-03-17T01:35:29;12.90;96.80
23160;DHT22;11748;50.844;4.396;2023-03-17T01:37:56;13.00;96.80
23160;DHT22;11748;50.844;4.396;2023-03-17T01:40:31;13.00;96.90
23160;DHT22;11748;50.844;4.396;2023-03-17T01:43:17;12.90;96.90
23160;DHT22;11748;50.844;4.396;2023-03-17T01:48:52;13.00;96.70
23160;DHT22;11748;50.844;4.396;2023-03-17T01:51:39;13.10;96.80
23160;DHT22;11748;50.844;4.396;2023-03-17T01:54:11;12.90;97.00
23160;DHT22;11748;50.844;4.396;2023-03-17T01:56:41;12.80;97.10
23160;DHT22;11748;50.844;4.396;2023-03-17T01:59:10;12.90;97.00
23160;DHT22;11748;50.844;4.396;2023-03-17T02:01:43;12.90;97.00
23160;DHT22;11748;50.844;4.396;2023-03-17T02:04:11;13.00;97.00
23160;DHT22;11748;50.844;4.396;2023-03-17T02:06:37;13.00;97.00
23160;DHT22;11748;50.844;4.396;2023-03-17T02:09:03;13.00;97.00
23160;DHT22;11748;50.844;4.396;2023-03-17T02:11:30;13.00;96.90
23160;DHT22;11748;50.844;4.396;2023-03-17T02:13:56;13.00;96.90
23160;DHT22;11748;50.844;4.396;2023-03-17T02:16:23;13.00;96.90
23160;DHT22;11748;50.844;4.396;2023-03-17T02:18:49;12.90;97.10
23160;DHT22;11748;50.844;4.396;2023-03-17T02:21:33;12.90;97.10
23160;DHT22;11748;50.844;4.396;2023-03-17T02:24:14;12.80;97.20
23160;DHT22;11748;50.844;4.396;2023-03-17T02:26:42;12.80;97.20
23160;DHT22;11748;50.844;4.396;2023-03-17T02:29:09;12.80;97.30
23160;DHT22;11748;50.844;4.396;2023-03-17T02:31:35;12.80;97.30
23160;DHT22;11748;50.844;4.396;2023-03-17T02:34:01;12.80;97.40
23160;DHT22;11748;50.844;4.396;2023-03-17T02:36:27;12.80;97.40
23160;DHT22;11748;50.844;4.396;2023-03-17T02:38:53;12.80;97.40
23160;DHT22;11748;50.844;4.396;2023-03-17T02:41:19;12.70;97.40
23160;DHT22;11748;50.844;4.396;2023-03-17T02:43:46;12.80;97.40
23160;DHT22;11748;50.844;4.396;2023-03-17T02:46:12;12.80;97.40
23160;DHT22;11748;50.844;4.396;2023-03-17T02:48:37;12.80;97.30
23160;DHT22;11748;50.844;4.396;2023-03-17T02:51:04;12.80;97.40
23160;DHT22;11748;50.844;4.396;2023-03-17T02:53:30;12.80;97.40
23160;DHT22;11748;50.844;4.396;2023-03-17T02:55:56;12.70;97.50
23160;DHT22;11748;50.844;4.396;2023-03-17T02:58:22;12.70;97.50
23160;DHT22;11748;50.844;4.396;2023-03-17T03:00:48;12.70;97.60
23160;DHT22;11748;50.844;4.396;2023-03-17T03:03:14;12.70;97.60
23160;DHT22;11748;50.844;4.396;2023-03-17T03:05:40;12.70;97.60
23160;DHT22;11748;50.844;4.396;2023-03-17T03:08:07;12.70;97.60
23160;DHT22;11748;50.844;4.396;2023-03-17T03:10:33;12.80;97.50
23160;DHT22;11748;50.844;4.396;2023-03-17T03:12:59;12.80;97.60
23160;DHT22;11748;50.844;4.396;2023-03-17T03:15:26;12.80;97.60
23160;DHT22;11748;50.844;4.396;2023-03-17T03:17:51;12.70;97.70
23160;DHT22;11748;50.844;4.396;2023-03-17T03:20:17;12.70;97.60
23160;DHT22;11748;50.844;4.396;2023-03-17T03:22:43;12.80;97.60
23160;DHT22;11748;50.844;4.396;2023-03-17T03:25:09;12.80;97.60
23160;DHT22;11748;50.844;4.396;2023-03-17T03:27:35;12.80;97.50
23160;DHT22;11748;50.844;4.396;2023-03-17T03:30:01;12.80;97.60
23160;DHT22;11748;50.844;4.396;2023-03-17T03:32:27;12.80;97.60
23160;DHT22;11748;50.844;4.396;2023-03-17T03:34:53;12.80;97.60
23160;DHT22;11748;50.844;4.396;2023-03-17T03:37:18;12.80;97.50
23160;DHT22;11748;50.844;4.396;2023-03-17T03:39:44;12.80;97.60
23160;DHT22;11748;50.844;4.396;2023-03-17T03:42:10;12.80;97.60
23160;DHT22;11748;50.844;4.396;2023-03-17T03:44:36;12.80;97.60
23160;DHT22;11748;50.844;4.396;2023-03-17T03:47:02;12.80;97.70
23160;DHT22;11748;50.844;4.396;2023-03-17T03:49:27;12.80;97.70
23160;DHT22;11748;50.844;4.396;2023-03-17T03:51:53;12.80;97.80
23160;DHT22;11748;50.844;4.396;2023-03-17T03:54:19;12.80;97.70
23160;DHT22;11748;50.844;4.396;2023-03-17T03:56:45;12.80;97.70
23160;DHT22;11748;50.844;4.396;2023-03-17T03:59:11;12.80;97.70
23160;DHT22;11748;50.844;4.396;2023-03-17T04:01:37;12.70;97.80
23160;DHT22;11748;50.844;4.396;2023-03-17T04:04:04;12.80;97.90
23160;DHT22;11748;50.844;4.396;2023-03-17T04:06:30;12.80;97.80
23160;DHT22;11748;50.844;4.396;2023-03-17T04:08:55;12.80;97.70
23160;DHT22;11748;50.844;4.396;2023-03-17T04:11:21;12.80;97.80
23160;DHT22;11748;50.844;4.396;2023-03-17T04:13:47;12.80;97.80
23160;DHT22;11748;50.844;4.396;2023-03-17T04:16:12;12.80;97.80
23160;DHT22;11748;50.844;4.396;2023-03-17T04:18:38;12.70;97.90
23160;DHT22;11748;50.844;4.396;2023-03-17T04:21:04;12.70;98.00
23160;DHT22;11748;50.844;4.396;2023-03-17T04:23:31;12.70;97.90
23160;DHT22;11748;50.844;4.396;2023-03-17T04:25:57;12.70;97.90
23160;DHT22;11748;50.844;4.396;2023-03-17T04:28:23;12.70;98.00
23160;DHT22;11748;50.844;4.396;2023-03-17T04:30:49;12.70;98.00
23160;DHT22;11748;50.844;4.396;2023-03-17T04:33:15;12.70;98.00
23160;DHT22;11748;50.844;4.396;2023-03-17T04:35:41;12.70;98.00
23160;DHT22;11748;50.844;4.396;2023-03-17T04:38:09;12.80;98.00
23160;DHT22;11748;50.844;4.396;2023-03-17T04:40:36;12.80;98.00
23160;DHT22;11748;50.844;4.396;2023-03-17T04:43:01;12.70;98.00
23160;DHT22;11748;50.844;4.396;2023-03-17T04:45:27;12.80;98.00
23160;DHT22;11748;50.844;4.396;2023-03-17T04:47:53;12.70;98.10
23160;DHT22;11748;50.844;4.396;2023-03-17T04:50:18;12.60;98.20
23160;DHT22;11748;50.844;4.396;2023-03-17T04:52:44;12.60;98.20
23160;DHT22;11748;50.844;4.396;2023-03-17T04:55:10;12.60;98.20
23160;DHT22;11748;50.844;4.396;2023-03-17T04:57:36;12.50;98.40
23160;DHT22;11748;50.844;4.396;2023-03-17T05:00:04;12.50;98.40
23160;DHT22;11748;50.844;4.396;2023-03-17T05:02:30;12.50;98.50
23160;DHT22;11748;50.844;4.396;2023-03-17T05:04:55;12.50;98.60
23160;DHT22;11748;50.844;4.396;2023-03-17T05:07:21;12.40;98.60
23160;DHT22;11748;50.844;4.396;2023-03-17T05:09:47;12.40;98.70
23160;DHT22;11748;50.844;4.396;2023-03-17T05:12:13;12.40;98.80
23160;DHT22;11748;50.844;4.396;2023-03-17T05:14:39;12.40;98.80
23160;DHT22;11748;50.844;4.396;2023-03-17T05:17:05;12.30;98.90
23160;DHT22;11748;50.844;4.396;2023-03-17T05:19:31;12.30;98.90
23160;DHT22;11748;50.844;4.396;2023-03-17T05:21:57;12.30;98.90
23160;DHT22;11748;50.844;4.396;2023-03-17T05:24:23;12.40;98.90
23160;DHT22;11748;50.844;4.396;2023-03-17T05:26:49;12.40;98.90
23160;DHT22;11748;50.844;4.396;2023-03-17T05:29:15;12.40;99.00
23160;DHT22;11748;50.844;4.396;2023-03-17T05:31:40;12.40;99.00
23160;DHT22;11748;50.844;4.396;2023-03-17T05:34:06;12.30;99.00
23160;DHT22;11748;50.844;4.396;2023-03-17T05:36:32;12.30;99.10
23160;DHT22;11748;50.844;4.396;2023-03-17T05:38:58;12.30;99.10
23160;DHT22;11748;50.844;4.396;2023-03-17T05:41:24;12.30;99.40
23160;DHT22;11748;50.844;4.396;2023-03-17T05:43:50;12.30;99.10
23160;DHT22;11748;50.844;4.396;2023-03-17T05:46:16;12.30;99.20
23160;DHT22;11748;50.844;4.396;2023-03-17T05:48:42;12.30;99.20
23160;DHT22;11748;50.844;4.396;2023-03-17T05:51:07;12.30;99.20
23160;DHT22;11748;50.844;4.396;2023-03-17T05:53:34;12.30;99.30
23160;DHT22;11748;50.844;4.396;2023-03-17T05:56:09;12.30;99.40
23160;DHT22;11748;50.844;4.396;2023-03-17T05:58:34;12.40;99.30
23160;DHT22;11748;50.844;4.396;2023-03-17T06:01:01;12.30;99.30
23160;DHT22;11748;50.844;4.396;2023-03-17T06:03:26;12.30;99.30
23160;DHT22;11748;50.844;4.396;2023-03-17T06:05:52;12.40;99.30
23160;DHT22;11748;50.844;4.396;2023-03-17T06:08:18;12.30;99.40
23160;DHT22;11748;50.844;4.396;2023-03-17T06:10:44;12.30;99.40
23160;DHT22;11748;50.844;4.396;2023-03-17T06:13:11;12.30;99.40
23160;DHT22;11748;50.844;4.396;2023-03-17T06:15:37;12.40;99.40
23160;DHT22;11748;50.844;4.396;2023-03-17T06:18:03;12.40;99.40
23160;DHT22;11748;50.844;4.396;2023-03-17T06:20:32;12.40;99.50
23160;DHT22;11748;50.844;4.396;2023-03-17T06:22:59;12.40;99.50
23160;DHT22;11748;50.844;4.396;2023-03-17T06:25:25;12.40;99.50
23160;DHT22;11748;50.844;4.396;2023-03-17T06:27:51;12.50;99.50
23160;DHT22;11748;50.844;4.396;2023-03-17T06:30:20;12.50;99.50
23160;DHT22;11748;50.844;4.396;2023-03-17T06:32:47;12.50;99.50
23160;DHT22;11748;50.844;4.396;2023-03-17T06:35:12;12.50;99.60
23160;DHT22;11748;50.844;4.396;2023-03-17T06:37:38;12.50;99.50
23160;DHT22;11748;50.844;4.396;2023-03-17T06:40:06;12.50;99.50
23160;DHT22;11748;50.844;4.396;2023-03-17T06:42:36;12.60;99.50
23160;DHT22;11748;50.844;4.396;2023-03-17T06:45:05;12.60;99.40
23160;DHT22;11748;50.844;4.396;2023-03-17T06:47:31;12.70;99.50
23160;DHT22;11748;50.844;4.396;2023-03-17T06:49:56;12.70;99.40
23160;DHT22;11748;50.844;4.396;2023-03-17T06:52:22;12.80;99.50
23160;DHT22;11748;50.844;4.396;2023-03-17T06:54:48;12.70;99.50
23160;DHT22;11748;50.844;4.396;2023-03-17T06:57:14;12.80;99.40
23160;DHT22;11748;50.844;4.396;2023-03-17T06:59:40;12.80;99.30
23160;DHT22;11748;50.844;4.396;2023-03-17T07:02:06;12.90;99.30
23160;DHT22;11748;50.844;4.396;2023-03-17T07:04:31;12.90;99.30
23160;DHT22;11748;50.844;4.396;2023-03-17T07:06:57;12.80;99.40
23160;DHT22;11748;50.844;4.396;2023-03-17T07:09:23;12.80;99.50
23160;DHT22;11748;50.844;4.396;2023-03-17T07:11:49;13.00;99.50
23160;DHT22;11748;50.844;4.396;2023-03-17T07:14:15;13.10;99.30
23160;DHT22;11748;50.844;4.396;2023-03-17T07:16:40;13.10;99.30
23160;DHT22;11748;50.844;4.396;2023-03-17T07:19:06;13.20;99.30
23160;DHT22;11748;50.844;4.396;2023-03-17T07:21:32;13.20;99.30
23160;DHT22;11748;50.844;4.396;2023-03-17T07:23:58;13.30;99.30
23160;DHT22;11748;50.844;4.396;2023-03-17T07:26:24;13.40;99.20
23160;DHT22;11748;50.844;4.396;2023-03-17T07:28:49;13.50;99.10
23160;DHT22;11748;50.844;4.396;2023-03-17T07:31:16;13.50;99.10
23160;DHT22;11748;50.844;4.396;2023-03-17T07:33:42;13.60;99.10
23160;DHT22;11748;50.844;4.396;2023-03-17T07:36:08;13.60;99.00
23160;DHT22;11748;50.844;4.396;2023-03-17T07:38:35;13.70;99.10
23160;DHT22;11748;50.844;4.396;2023-03-17T07:41:02;13.80;99.00
23160;DHT22;11748;50.844;4.396;2023-03-17T07:43:29;13.90;98.90
23160;DHT22;11748;50.844;4.396;2023-03-17T07:45:55;14.00;98.80
23160;DHT22;11748;50.844;4.396;2023-03-17T07:48:21;14.10;98.70
23160;DHT22;11748;50.844;4.396;2023-03-17T07:50:47;14.20;98.60
23160;DHT22;11748;50.844;4.396;2023-03-17T07:53:13;14.20;98.60
23160;DHT22;11748;50.844;4.396;2023-03-17T07:55:38;14.30;98.90
23160;DHT22;11748;50.844;4.396;2023-03-17T07:58:04;14.50;98.60
23160;DHT22;11748;50.844;4.396;2023-03-17T08:00:30;14.50;98.60
23160;DHT22;11748;50.844;4.396;2023-03-17T08:02:56;14.60;98.50
23160;DHT22;11748;50.844;4.396;2023-03-17T08:05:23;14.60;98.60
23160;DHT22;11748;50.844;4.396;2023-03-17T08:07:49;14.60;98.70
23160;DHT22;11748;50.844;4.396;2023-03-17T08:10:15;14.80;98.60
23160;DHT22;11748;50.844;4.396;2023-03-17T08:12:42;14.90;98.60
23160;DHT22;11748;50.844;4.396;2023-03-17T08:15:08;15.00;98.50
23160;DHT22;11748;50.844;4.396;2023-03-17T08:17:35;15.10;98.40
23160;DHT22;11748;50.844;4.396;2023-03-17T08:20:01;15.20;98.40
23160;DHT22;11748;50.844;4.396;2023-03-17T08:22:27;15.20;98.40
23160;DHT22;11748;50.844;4.396;2023-03-17T08:24:53;15.30;98.30
23160;DHT22;11748;50.844;4.396;2023-03-17T08:27:33;15.30;98.40
23160;DHT22;11748;50.844;4.396;2023-03-17T08:29:59;15.20;98.40
23160;DHT22;11748;50.844;4.396;2023-03-17T08:32:26;15.20;98.50
23160;DHT22;11748;50.844;4.396;2023-03-17T08:34:53;15.30;98.50
23160;DHT22;11748;50.844;4.396;2023-03-17T08:37:19;15.10;98.60
23160;DHT22;11748;50.844;4.396;2023-03-17T08:39:45;15.20;98.70
23160;DHT22;11748;50.844;4.396;2023-03-17T08:42:11;15.10;98.80
23160;DHT22;11748;50.844;4.396;2023-03-17T08:44:37;15.10;98.90
23160;DHT22;11748;50.844;4.396;2023-03-17T08:47:02;15.10;98.90
23160;DHT22;11748;50.844;4.396;2023-03-17T08:49:29;15.10;99.00
23160;DHT22;11748;50.844;4.396;2023-03-17T08:51:56;15.10;99.10
23160;DHT22;11748;50.844;4.396;2023-03-17T08:54:21;15.10;99.00
23160;DHT22;11748;50.844;4.396;2023-03-17T08:56:47;15.00;99.10
23160;DHT22;11748;50.844;4.396;2023-03-17T08:59:13;15.00;99.20
23160;DHT22;11748;50.844;4.396;2023-03-17T09:01:39;15.20;99.20
23160;DHT22;11748;50.844;4.396;2023-03-17T09:04:06;15.20;99.10
23160;DHT22;11748;50.844;4.396;2023-03-17T09:06:32;15.20;99.20
23160;DHT22;11748;50.844;4.396;2023-03-17T09:08:58;15.20;99.20
23160;DHT22;11748;50.844;4.396;2023-03-17T09:11:27;15.20;99.20
23160;DHT22;11748;50.844;4.396;2023-03-17T09:13:54;15.20;99.30
23160;DHT22;11748;50.844;4.396;2023-03-17T09:16:20;15.30;99.30
23160;DHT22;11748;50.844;4.396;2023-03-17T09:18:48;15.40;99.30
23160;DHT22;11748;50.844;4.396;2023-03-17T09:21:14;15.40;99.70
23160;DHT22;11748;50.844;4.396;2023-03-17T09:23:41;15.40;99.90
23160;DHT22;11748;50.844;4.396;2023-03-17T09:26:07;15.50;99.90
23160;DHT22;11748;50.844;4.396;2023-03-17T09:28:33;15.60;99.90
23160;DHT22;11748;50.844;4.396;2023-03-17T09:31:03;15.50;99.90
23160;DHT22;11748;50.844;4.396;2023-03-17T09:33:31;15.10;99.90
23160;DHT22;11748;50.844;4.396;2023-03-17T09:35:57;14.80;99.90
23160;DHT22;11748;50.844;4.396;2023-03-17T09:38:25;14.80;99.90
23160;DHT22;11748;50.844;4.396;2023-03-17T09:51:42;15.40;99.90
23160;DHT22;11748;50.844;4.396;2023-03-17T09:54:32;15.50;99.80
23160;DHT22;11748;50.844;4.396;2023-03-17T09:57:11;15.70;99.60
23160;DHT22;11748;50.844;4.396;2023-03-17T09:59:46;15.90;99.50
23160;DHT22;11748;50.844;4.396;2023-03-17T10:02:33;16.10;99.20
23160;DHT22;11748;50.844;4.396;2023-03-17T10:05:19;16.40;99.10
23160;DHT22;11748;50.844;4.396;2023-03-17T10:10:38;16.70;98.50
23160;DHT22;11748;50.844;4.396;2023-03-17T10:16:13;16.90;98.50
23160;DHT22;11748;50.844;4.396;2023-03-17T10:18:57;16.70;98.40
23160;DHT22;11748;50.844;4.396;2023-03-17T10:21:31;16.40;99.10
23160;DHT22;11748;50.844;4.396;2023-03-17T10:23:58;16.40;99.20
23160;DHT22;11748;50.844;4.396;2023-03-17T10:26:33;16.50;99.30
23160;DHT22;11748;50.844;4.396;2023-03-17T10:29:01;16.80;99.10
23160;DHT22;11748;50.844;4.396;2023-03-17T10:31:32;17.10;98.90
23160;DHT22;11748;50.844;4.396;2023-03-17T10:34:17;17.30;98.60
23160;DHT22;11748;50.844;4.396;2023-03-17T10:36:48;17.00;98.80
23160;DHT22;11748;50.844;4.396;2023-03-17T10:39:21;16.90;99.10
23160;DHT22;11748;50.844;4.396;2023-03-17T10:41:56;17.20;98.90
23160;DHT22;11748;50.844;4.396;2023-03-17T10:44:43;17.10;99.00
23160;DHT22;11748;50.844;4.396;2023-03-17T10:47:22;17.10;99.00
23160;DHT22;11748;50.844;4.396;2023-03-17T10:49:48;17.50;98.90
23160;DHT22;11748;50.844;4.396;2023-03-17T10:52:22;17.60;98.90
23160;DHT22;11748;50.844;4.396;2023-03-17T10:54:50;17.30;99.10
23160;DHT22;11748;50.844;4.396;2023-03-17T10:57:16;17.30;99.20
23160;DHT22;11748;50.844;4.396;2023-03-17T10:59:50;17.30;99.20
23160;DHT22;11748;50.844;4.396;2023-03-17T11:02:29;17.20;99.50
23160;DHT22;11748;50.844;4.396;2023-03-17T11:05:00;17.30;99.50
23160;DHT22;11748;50.844;4.396;2023-03-17T11:07:36;17.40;99.60
23160;DHT22;11748;50.844;4.396;2023-03-17T11:10:18;17.90;99.10
23160;DHT22;11748;50.844;4.396;2023-03-17T11:12:47;18.10;98.80
23160;DHT22;11748;50.844;4.396;2023-03-17T11:15:16;18.40;98.50
23160;DHT22;11748;50.844;4.396;2023-03-17T11:23:03;18.80;98.20
23160;DHT22;11748;50.844;4.396;2023-03-17T11:25:31;19.00;98.00
23160;DHT22;11748;50.844;4.396;2023-03-17T11:28:29;19.00;97.70
23160;DHT22;11748;50.844;4.396;2023-03-17T11:33:34;18.60;98.40
23160;DHT22;11748;50.844;4.396;2023-03-17T11:36:53;18.80;98.20
23160;DHT22;11748;50.844;4.396;2023-03-17T11:39:24;18.50;98.50
23160;DHT22;11748;50.844;4.396;2023-03-17T11:47:25;18.90;98.50
23160;DHT22;11748;50.844;4.396;2023-03-17T11:55:47;20.10;97.00
23160;DHT22;11748;50.844;4.396;2023-03-17T11:58:34;20.10;96.90
23160;DHT22;11748;50.844;4.396;2023-03-17T12:01:06;20.30;96.70
23160;DHT22;11748;50.844;4.396;2023-03-17T12:03:43;20.30;96.80
23160;DHT22;11748;50.844;4.396;2023-03-17T12:06:33;20.40;96.50
23160;DHT22;11748;50.844;4.396;2023-03-17T12:09:08;20.50;96.40
23160;DHT22;11748;50.844;4.396;2023-03-17T12:11:42;20.40;96.40
23160;DHT22;11748;50.844;4.396;2023-03-17T12:14:34;20.30;96.40
23160;DHT22;11748;50.844;4.396;2023-03-17T12:19:43;20.40;96.40
23160;DHT22;11748;50.844;4.396;2023-03-17T12:22:14;20.30;96.50
23160;DHT22;11748;50.844;4.396;2023-03-17T12:24:52;20.40;96.50
23160;DHT22;11748;50.844;4.396;2023-03-17T12:28:00;19.80;97.20
23160;DHT22;11748;50.844;4.396;2023-03-17T12:30:52;19.80;97.20
23160;DHT22;11748;50.844;4.396;2023-03-17T12:33:45;20.00;97.00
23160;DHT22;11748;50.844;4.396;2023-03-17T12:36:14;20.10;96.90
23160;DHT22;11748;50.844;4.396;2023-03-17T12:38:59;20.10;96.70
23160;DHT22;11748;50.844;4.396;2023-03-17T12:48:18;20.10;96.40
23160;DHT22;11748;50.844;4.396;2023-03-17T12:53:31;20.40;96.40
23160;DHT22;11748;50.844;4.396;2023-03-17T12:58:42;19.90;96.90
23160;DHT22;11748;50.844;4.396;2023-03-17T13:11:58;20.00;96.40
23160;DHT22;11748;50.844;4.396;2023-03-17T13:14:39;19.90;96.70
23160;DHT22;11748;50.844;4.396;2023-03-17T13:22:41;20.40;95.70
23160;DHT22;11748;50.844;4.396;2023-03-17T13:25:33;20.50;95.60
23160;DHT22;11748;50.844;4.396;2023-03-17T13:46:45;20.80;94.90
23160;DHT22;11748;50.844;4.396;2023-03-17T13:49:18;20.80;94.80
23160;DHT22;11748;50.844;4.396;2023-03-17T13:52:13;20.80;94.90
23160;DHT22;11748;50.844;4.396;2023-03-17T13:54:46;20.60;94.80
23160;DHT22;11748;50.844;4.396;2023-03-17T13:57:33;20.60;94.90
23160;DHT22;11748;50.844;4.396;2023-03-17T14:02:42;20.60;95.10
23160;DHT22;11748;50.844;4.396;2023-03-17T14:05:35;20.70;95.00
23160;DHT22;11748;50.844;4.396;2023-03-17T14:08:26;20.80;94.80
23160;DHT22;11748;50.844;4.396;2023-03-17T14:10:57;20.80;94.80
23160;DHT22;11748;50.844;4.396;2023-03-17T14:13:40;20.70;94.80
23160;DHT22;11748;50.844;4.396;2023-03-17T14:16:16;20.80;94.80
23160;DHT22;11748;50.844;4.396;2023-03-17T14:18:47;20.80;94.90
23160;DHT22;11748;50.844;4.396;2023-03-17T14:21:31;20.70;94.80
23160;DHT22;11748;50.844;4.396;2023-03-17T14:24:00;20.80;94.60
23160;DHT22;11748;50.844;4.396;2023-03-17T14:26:29;20.80;94.60
23160;DHT22;11748;50.844;4.396;2023-03-17T14:28:59;20.80;94.50
23160;DHT22;11748;50.844;4.396;2023-03-17T14:31:27;20.80;94.40
23160;DHT22;11748;50.844;4.396;2023-03-17T14:33:55;20.80;94.50
23160;DHT22;11748;50.844;4.396;2023-03-17T14:36:22;20.70;94.50
23160;DHT22;11748;50.844;4.396;2023-03-17T14:38:51;20.70;94.70
23160;DHT22;11748;50.844;4.396;2023-03-17T14:43:44;20.60;94.60
23160;DHT22;11748;50.844;4.396;2023-03-17T14:46:32;20.50;94.50
23160;DHT22;11748;50.844;4.396;2023-03-17T14:49:18;20.40;94.70
23160;DHT22;11748;50.844;4.396;2023-03-17T14:51:46;20.20;94.90
23160;DHT22;11748;50.844;4.396;2023-03-17T14:54:21;20.30;94.90
23160;DHT22;11748;50.844;4.396;2023-03-17T14:56:50;20.40;94.90
23160;DHT22;11748;50.844;4.396;2023-03-17T15:02:32;20.20;95.30
23160;DHT22;11748;50.844;4.396;2023-03-17T15:05:23;19.80;95.70
23160;DHT22;11748;50.844;4.396;2023-03-17T15:07:50;19.90;95.70
23160;DHT22;11748;50.844;4.396;2023-03-17T15:10:25;20.00;95.60
23160;DHT22;11748;50.844;4.396;2023-03-17T15:13:02;19.90;95.70
23160;DHT22;11748;50.844;4.396;2023-03-17T15:15:31;20.00;95.70
23160;DHT22;11748;50.844;4.396;2023-03-17T15:18:03;20.00;95.80
23160;DHT22;11748;50.844;4.396;2023-03-17T15:20:33;20.00;95.80
23160;DHT22;11748;50.844;4.396;2023-03-17T15:23:23;20.00;95.50
23160;DHT22;11748;50.844;4.396;2023-03-17T15:25:52;19.90;95.60
23160;DHT22;11748;50.844;4.396;2023-03-17T15:28:21;19.90;95.50
23160;DHT22;11748;50.844;4.396;2023-03-17T15:30:52;19.90;95.60
23160;DHT22;11748;50.844;4.396;2023-03-17T15:35:53;19.40;96.10
23160;DHT22;11748;50.844;4.396;2023-03-17T15:38:21;19.50;96.10
23160;DHT22;11748;50.844;4.396;2023-03-17T15:40:47;19.60;96.00
23160;DHT22;11748;50.844;4.396;2023-03-17T15:43:15;19.50;96.10
23160;DHT22;11748;50.844;4.396;2023-03-17T15:45:42;19.60;96.00
23160;DHT22;11748;50.844;4.396;2023-03-17T15:48:19;19.60;96.20
23160;DHT22;11748;50.844;4.396;2023-03-17T15:50:46;19.60;95.90
23160;DHT22;11748;50.844;4.396;2023-03-17T15:53:13;19.50;96.10
23160;DHT22;11748;50.844;4.396;2023-03-17T15:55:39;19.50;96.10
23160;DHT22;11748;50.844;4.396;2023-03-17T15:58:04;19.50;96.20
23160;DHT22;11748;50.844;4.396;2023-03-17T16:00:30;19.40;96.20
23160;DHT22;11748;50.844;4.396;2023-03-17T16:03:49;19.40;96.20
23160;DHT22;11748;50.844;4.396;2023-03-17T16:05:52;19.30;96.30
23160;DHT22;11748;50.844;4.396;2023-03-17T16:08:18;19.10;96.30
23160;DHT22;11748;50.844;4.396;2023-03-17T16:10:44;19.10;96.40
23160;DHT22;11748;50.844;4.396;2023-03-17T16:13:11;19.10;96.50
23160;DHT22;11748;50.844;4.396;2023-03-17T16:15:39;19.10;96.50
23160;DHT22;11748;50.844;4.396;2023-03-17T16:18:13;19.10;96.50
23160;DHT22;11748;50.844;4.396;2023-03-17T16:20:51;19.10;96.60
23160;DHT22;11748;50.844;4.396;2023-03-17T16:23:20;19.00;96.60
23160;DHT22;11748;50.844;4.396;2023-03-17T16:25:47;18.70;96.90
23160;DHT22;11748;50.844;4.396;2023-03-17T16:28:19;18.60;97.10
23160;DHT22;11748;50.844;4.396;2023-03-17T16:30:46;18.60;97.10
23160;DHT22;11748;50.844;4.396;2023-03-17T16:33:29;18.60;96.90
23160;DHT22;11748;50.844;4.396;2023-03-17T16:35:57;18.60;96.90
23160;DHT22;11748;50.844;4.396;2023-03-17T16:38:26;18.40;97.10
23160;DHT22;11748;50.844;4.396;2023-03-17T16:41:00;18.40;97.10
23160;DHT22;11748;50.844;4.396;2023-03-17T16:43:33;18.40;97.10
23160;DHT22;11748;50.844;4.396;2023-03-17T16:46:03;18.30;97.20
23160;DHT22;11748;50.844;4.396;2023-03-17T16:48:30;18.20;97.20
23160;DHT22;11748;50.844;4.396;2023-03-17T16:50:56;18.20;97.30
23160;DHT22;11748;50.844;4.396;2023-03-17T16:53:22;18.10;97.40
23160;DHT22;11748;50.844;4.396;2023-03-17T16:55:50;18.10;97.40
23160;DHT22;11748;50.844;4.396;2023-03-17T17:00:44;18.00;97.50
23160;DHT22;11748;50.844;4.396;2023-03-17T17:03:11;18.00;97.50
23160;DHT22;11748;50.844;4.396;2023-03-17T17:05:36;18.10;97.30
23160;DHT22;11748;50.844;4.396;2023-03-17T17:08:02;18.10;97.40
23160;DHT22;11748;50.844;4.396;2023-03-17T17:10:29;18.10;97.40
23160;DHT22;11748;50.844;4.396;2023-03-17T17:12:56;18.10;97.20
23160;DHT22;11748;50.844;4.396;2023-03-17T17:15:22;18.10;97.20
23160;DHT22;11748;50.844;4.396;2023-03-17T17:17:54;18.00;97.40
23160;DHT22;11748;50.844;4.396;2023-03-17T17:20:28;17.90;97.60
23160;DHT22;11748;50.844;4.396;2023-03-17T17:22:55;17.90;97.50
23160;DHT22;11748;50.844;4.396;2023-03-17T17:25:22;17.90;97.70
23160;DHT22;11748;50.844;4.396;2023-03-17T17:27:48;17.80;97.70